Time;durP1;ratioP1;P1;durP2;ratioP2;P2;SDS_P1;SDS_P2;PMS_P1;PMS_P2;Temp;Humidity;BMP_temperature;BMP_pressure;BME280_temperature;BME280_humidity;BME280_pressure;Samples;Min_cycle;Max_cycle;Signal;HPM_P1;HPM_P2
2023/03/21 00:01:21;;;;;;;22.67;13.70;;;;;;;7.28;100.00;100530.53;5054105;28;20377;-67
2023/03/21 00:03:48;;;;;;;26.35;13.10;;;;;;;7.41;100.00;100519.22;5054347;28;20021;-64
2023/03/21 00:06:13;;;;;;;23.58;14.48;;;;;;;7.63;100.00;100512.56;5054215;28;20387;-65
2023/03/21 00:08:39;;;;;;;39.88;19.45;;;;;;;7.81;100.00;100504.88;5053669;28;20043;-67
2023/03/21 00:11:08;;;;;;;25.35;16.00;;;;;;;7.94;100.00;100501.22;5053928;28;20033;-67
2023/03/21 00:13:37;;;;;;;25.67;16.17;;;;;;;8.07;100.00;100500.09;5054166;28;20048;-64
2023/03/21 00:16:14;;;;;;;31.77;16.08;;;;;;;7.40;100.00;100512.31;5053788;28;20118;-67
2023/03/21 00:18:45;;;;;;;31.92;18.25;;;;;;;6.91;100.00;100496.94;5053773;28;20029;-67
2023/03/21 00:21:16;;;;;;;38.03;19.95;;;;;;;6.93;100.00;100513.31;5053938;28;20025;-67
2023/03/21 00:23:42;;;;;;;31.25;17.42;;;;;;;6.32;100.00;100438.31;5053233;28;20487;-67
2023/03/21 00:26:09;;;;;;;28.55;17.67;;;;;;;6.64;100.00;100500.72;5053840;28;20150;-67
2023/03/21 00:28:41;;;;;;;29.70;18.58;;;;;;;6.50;100.00;100437.53;5054080;28;20064;-67
2023/03/21 00:31:08;;;;;;;32.60;19.52;;;;;;;6.82;100.00;100494.78;5053677;28;20110;-64
2023/03/21 00:33:34;;;;;;;32.40;19.15;;;;;;;6.84;100.00;100503.47;5053524;28;20033;-64
2023/03/21 00:36:00;;;;;;;31.70;19.10;;;;;;;6.68;100.00;100481.25;5053717;28;20032;-65
2023/03/21 00:38:26;;;;;;;42.20;22.13;;;;;;;6.50;100.00;100454.63;5053654;28;20032;-65
2023/03/21 00:40:52;;;;;;;34.00;21.40;;;;;;;6.77;100.00;100491.97;5053337;28;20527;-67
2023/03/21 00:43:22;;;;;;;40.90;24.15;;;;;;;6.79;100.00;100487.81;5051999;28;20029;-64
2023/03/21 00:45:48;;;;;;;;;;;;;;;6.93;100.00;100491.09;5053968;28;20056;-67
2023/03/21 00:48:13;;;;;;;38.78;23.10;;;;;;;6.61;100.00;100497.97;5051907;28;20001;-64
2023/03/21 00:50:39;;;;;;;42.45;25.88;;;;;;;6.78;100.00;100477.47;5053182;28;20063;-71
2023/03/21 00:53:05;;;;;;;45.05;26.88;;;;;;;6.92;100.00;100481.63;5053410;28;20025;-67
2023/03/21 00:55:31;;;;;;;49.80;29.95;;;;;;;7.03;100.00;100482.19;5053633;28;20075;-67
2023/03/21 00:57:57;;;;;;;50.10;30.63;;;;;;;6.93;100.00;100473.13;5052761;28;20112;-67
2023/03/21 01:00:22;;;;;;;46.35;30.63;;;;;;;6.43;100.00;100428.63;5053807;28;20036;-69
2023/03/21 01:02:57;;;;;;;42.90;26.08;;;;;;;6.58;100.00;100479.88;5052927;28;20055;-71
2023/03/21 01:08:11;;;;;;;36.95;21.20;;;;;;;6.54;100.00;100416.38;5053273;28;20098;-67
2023/03/21 01:10:43;;;;;;;31.88;19.33;;;;;;;6.88;100.00;100458.28;5053402;28;20033;-64
2023/03/21 01:13:10;;;;;;;30.38;17.52;;;;;;;6.91;100.00;100469.59;5052509;28;20112;-67
2023/03/21 01:15:41;;;;;;;29.98;18.05;;;;;;;6.73;100.00;100425.00;5052992;28;20471;-67
2023/03/21 01:18:06;;;;;;;27.33;16.77;;;;;;;7.01;100.00;100468.38;5052455;28;20029;-64
2023/03/21 01:20:32;;;;;;;24.92;15.30;;;;;;;7.10;100.00;100467.97;5052940;28;20062;-71
2023/03/21 01:22:57;;;;;;;24.10;15.48;;;;;;;7.15;100.00;100469.06;5052574;28;20025;-68
2023/03/21 01:25:23;;;;;;;29.52;16.33;;;;;;;7.12;100.00;100469.81;5052471;28;20058;-67
2023/03/21 01:27:48;;;;;;;24.23;14.57;;;;;;;7.17;100.00;100461.47;5052126;28;20428;-65
2023/03/21 01:30:14;;;;;;;21.55;13.57;;;;;;;7.28;100.00;100462.91;5053083;28;20033;-66
2023/03/21 01:32:39;;;;;;;25.98;15.00;;;;;;;7.36;100.00;100455.56;5052780;28;20033;-67
2023/03/21 01:35:05;;;;;;;25.48;16.70;;;;;;;7.34;100.00;100464.88;5052466;28;20102;-68
2023/03/21 01:37:31;;;;;;;28.73;17.50;;;;;;;6.92;100.00;100398.63;5052444;28;20025;-68
2023/03/21 01:39:57;;;;;;;26.70;17.00;;;;;;;7.20;100.00;100434.28;5052647;28;20090;-64
2023/03/21 01:42:22;;;;;;;27.60;16.65;;;;;;;7.03;100.00;100410.31;5052329;28;20550;-68
2023/03/21 01:44:57;;;;;;;27.42;17.45;;;;;;;7.13;100.00;100442.47;5052263;28;20490;-64
2023/03/21 01:47:23;;;;;;;24.85;16.45;;;;;;;7.11;100.00;100431.22;5052607;28;20043;-64
2023/03/21 01:49:51;;;;;;;27.25;17.80;;;;;;;6.93;100.00;100388.44;5051024;28;20025;-69
2023/03/21 01:52:22;;;;;;;25.30;16.52;;;;;;;7.29;100.00;100433.84;5052245;28;20056;-65
2023/03/21 01:54:50;;;;;;;24.23;16.75;;;;;;;7.40;100.00;100432.69;5051365;28;20448;-65
2023/03/21 01:57:23;;;;;;;27.10;16.75;;;;;;;7.41;100.00;100418.16;5052549;28;20029;-67
2023/03/21 01:59:53;;;;;;;25.73;16.27;;;;;;;7.50;100.00;100410.91;5052479;28;20059;-64
2023/03/21 02:02:24;;;;;;;25.20;16.42;;;;;;;7.39;100.00;100404.34;5052200;28;20035;-69
2023/03/21 02:04:57;;;;;;;29.67;15.93;;;;;;;7.49;100.00;100409.13;5052402;28;20021;-68
2023/03/21 02:07:30;;;;;;;28.10;15.77;;;;;;;7.32;100.00;100389.47;5052345;28;20442;-68
2023/03/21 02:09:57;;;;;;;28.73;15.77;;;;;;;7.14;100.00;100364.66;5051671;28;20386;-67
2023/03/21 02:12:24;;;;;;;26.42;16.48;;;;;;;7.36;100.00;100405.06;5052114;28;20400;-69
2023/03/21 02:14:55;;;;;;;25.02;15.98;;;;;;;7.43;100.00;100396.00;5052342;28;20021;-64
2023/03/21 02:17:35;;;;;;;26.85;16.40;;;;;;;7.51;100.00;100404.94;5052341;28;20025;-64
2023/03/21 02:20:42;;;;;;;27.95;15.88;;;;;;;7.59;100.00;100395.03;5052309;28;20029;-68
2023/03/21 02:23:13;;;;;;;20.95;14.50;;;;;;;7.60;100.00;100396.78;5048762;28;20391;-64
2023/03/21 02:26:15;;;;;;;25.90;15.15;;;;;;;7.49;100.00;100396.28;5051958;28;20045;-69
2023/03/21 02:28:48;;;;;;;23.58;14.70;;;;;;;7.35;100.00;100399.88;5052183;28;20090;-67
2023/03/21 02:31:36;;;;;;;26.20;16.13;;;;;;;6.88;100.00;100405.28;5051947;28;20037;-67
2023/03/21 02:34:11;;;;;;;23.13;16.52;;;;;;;6.70;100.00;100401.78;5051621;28;20078;-71
2023/03/21 02:36:58;;;;;;;25.75;16.90;;;;;;;6.67;100.00;100405.06;5052225;28;20377;-67
2023/03/21 02:39:29;;;;;;;27.67;14.98;;;;;;;6.63;100.00;100401.47;5051594;28;20124;-66
2023/03/21 02:42:12;;;;;;;21.08;15.48;;;;;;;6.40;100.00;100401.94;5051867;28;20529;-67
2023/03/21 02:44:45;;;;;;;23.88;15.35;;;;;;;6.25;100.00;100394.31;5051710;28;20536;-66
2023/03/21 02:47:16;;;;;;;26.83;15.57;;;;;;;6.17;100.00;100398.16;5051523;28;20108;-68
2023/03/21 02:49:50;;;;;;;26.00;14.63;;;;;;;6.07;100.00;100399.34;5052048;28;20033;-67
2023/03/21 02:52:22;;;;;;;23.08;14.77;;;;;;;6.21;100.00;100413.78;5052384;28;20036;-65
2023/03/21 02:54:48;;;;;;;30.88;15.75;;;;;;;5.99;100.00;100393.81;5054105;28;20119;-64
2023/03/21 02:57:18;;;;;;;26.42;15.60;;;;;;;5.29;100.00;100290.13;5055663;28;20033;-67
2023/03/21 02:59:45;;;;;;;24.70;15.45;;;;;;;5.83;100.00;100408.31;5055313;28;20524;-69
2023/03/21 03:02:11;;;;;;;24.63;14.43;;;;;;;5.77;100.00;100391.72;5054502;28;20029;-67
2023/03/21 03:04:37;;;;;;;22.65;14.75;;;;;;;5.47;100.00;100325.19;5055413;28;20032;-69
2023/03/21 03:07:33;;;;;;;27.83;17.35;;;;;;;5.57;100.00;100347.97;5055196;28;20033;-66
2023/03/21 03:10:26;;;;;;;42.47;23.13;;;;;;;5.91;100.00;100398.50;5055007;28;20032;-69
2023/03/21 03:13:32;;;;;;;36.25;24.20;;;;;;;5.90;100.00;100394.16;5054190;28;20503;-70
2023/03/21 03:16:14;;;;;;;41.38;22.02;;;;;;;5.59;100.00;100412.94;5055219;28;20025;-68
2023/03/21 03:18:45;;;;;;;48.33;23.40;;;;;;;5.54;100.00;100406.69;5055515;28;20463;-68
2023/03/21 03:21:22;;;;;;;40.72;22.60;;;;;;;5.66;100.00;100383.47;5055130;28;20020;-69
2023/03/21 03:24:05;;;;;;;39.50;21.60;;;;;;;5.69;100.00;100375.94;5055091;28;20029;-65
2023/03/21 03:26:46;;;;;;;37.70;21.67;;;;;;;5.91;100.00;100395.06;5053343;28;20052;-69
2023/03/21 03:29:15;;;;;;;32.03;19.50;;;;;;;5.87;100.00;100383.75;5054977;28;20036;-68
2023/03/21 03:32:22;;;;;;;33.93;19.37;;;;;;;6.06;100.00;100389.91;5054386;28;20029;-68
2023/03/21 03:34:55;;;;;;;34.22;17.77;;;;;;;5.94;100.00;100355.09;4973808;28;20073;-65
2023/03/21 03:37:25;;;;;;;30.80;17.30;;;;;;;6.18;100.00;100397.34;4973778;28;20039;-68
2023/03/21 03:39:58;;;;;;;29.55;18.35;;;;;;;6.14;100.00;100396.31;4957426;28;20050;-68
2023/03/21 03:42:30;;;;;;;32.45;18.20;;;;;;;6.22;100.00;100401.84;4973482;28;20097;-65
2023/03/21 03:44:56;;;;;;;37.40;18.85;;;;;;;6.23;100.00;100389.13;4973608;28;20047;-68
2023/03/21 03:47:27;;;;;;;37.55;19.02;;;;;;;6.33;100.00;100398.19;4973644;28;20053;-68
2023/03/21 03:50:11;;;;;;;28.92;17.95;;;;;;;6.26;100.00;100391.84;4973720;28;20049;-68
2023/03/21 03:52:49;;;;;;;32.35;18.50;;;;;;;5.97;100.00;100341.59;4973289;28;20043;-66
2023/03/21 03:55:17;;;;;;;26.27;17.45;;;;;;;6.30;100.00;100396.31;4973666;28;20081;-68
2023/03/21 03:57:44;;;;;;;33.53;17.17;;;;;;;6.11;100.00;100348.34;4973131;28;20034;-72
2023/03/21 04:00:12;;;;;;;24.23;15.75;;;;;;;6.39;100.00;100385.69;4973099;28;20050;-67
2023/03/21 04:02:38;;;;;;;25.73;16.85;;;;;;;6.46;100.00;100410.84;4973030;28;20038;-66
2023/03/21 04:05:04;;;;;;;35.38;16.80;;;;;;;6.54;100.00;100400.09;4977280;28;20451;-66
2023/03/21 04:07:30;;;;;;;45.05;17.02;;;;;;;6.44;100.00;100412.47;4976011;28;20034;-68
2023/03/21 04:09:56;;;;;;;28.52;15.60;;;;;;;6.22;100.00;100376.22;4992420;28;20038;-65
2023/03/21 04:12:22;;;;;;;30.65;16.92;;;;;;;6.48;100.00;100421.19;5045097;28;20120;-69
2023/03/21 04:14:51;;;;;;;26.30;15.70;;;;;;;6.41;100.00;100396.03;5054409;28;20025;-66
2023/03/21 04:17:17;;;;;;;26.65;16.67;;;;;;;6.47;100.00;100416.88;5053855;28;20048;-69
2023/03/21 04:19:44;;;;;;;22.95;14.75;;;;;;;6.49;100.00;100420.38;5052745;28;20025;-66
2023/03/21 04:22:11;;;;;;;31.85;15.65;;;;;;;6.52;100.00;100411.94;5053418;28;20495;-69
2023/03/21 04:24:37;;;;;;;28.65;16.02;;;;;;;6.63;100.00;100416.00;5053969;28;20459;-65
2023/03/21 04:27:04;;;;;;;32.33;15.15;;;;;;;6.68;100.00;100408.50;5053264;28;20049;-65
2023/03/21 04:29:30;;;;;;;25.33;15.23;;;;;;;6.75;100.00;100401.22;5054155;28;20025;-67
2023/03/21 04:31:56;;;;;;;27.35;15.88;;;;;;;6.79;100.00;100400.56;5053603;28;20036;-69
2023/03/21 04:34:22;;;;;;;29.38;16.08;;;;;;;6.90;100.00;100406.25;5053807;28;20060;-65
2023/03/21 04:36:52;;;;;;;30.05;16.08;;;;;;;6.91;100.00;100402.88;5053528;28;20060;-70
2023/03/21 04:39:19;;;;;;;29.63;15.77;;;;;;;6.80;100.00;100373.22;5053945;28;20079;-65
2023/03/21 04:41:47;;;;;;;26.55;15.50;;;;;;;6.99;100.00;100402.38;5053377;28;20063;-68
2023/03/21 04:44:14;;;;;;;34.83;17.80;;;;;;;7.04;100.00;100414.66;5051979;28;20039;-69
2023/03/21 04:46:42;;;;;;;36.78;17.65;;;;;;;7.19;100.00;100411.97;5053853;28;20382;-67
2023/03/21 04:49:08;;;;;;;41.78;17.42;;;;;;;6.91;100.00;100360.94;5052089;28;20167;-67
2023/03/21 04:51:35;;;;;;;43.05;18.80;;;;;;;7.28;100.00;100414.97;5053190;28;20025;-69
2023/03/21 04:54:01;;;;;;;39.17;17.65;;;;;;;7.38;100.00;100425.72;5053410;28;20029;-72
2023/03/21 04:56:32;;;;;;;37.83;19.05;;;;;;;7.36;100.00;100427.31;5053626;28;20037;-69
2023/03/21 04:59:00;;;;;;;41.15;17.20;;;;;;;7.39;100.00;100423.22;5052937;28;20028;-70
2023/03/21 05:01:29;;;;;;;31.60;16.17;;;;;;;7.42;100.00;100425.91;5053566;28;20039;-68
2023/03/21 05:04:02;;;;;;;30.10;16.33;;;;;;;7.48;100.00;100434.72;5052670;28;20025;-64
2023/03/21 05:06:29;;;;;;;31.45;16.55;;;;;;;7.41;100.00;100418.16;5052536;28;20033;-65
2023/03/21 05:08:58;;;;;;;30.13;16.70;;;;;;;7.40;100.00;100437.81;5053448;28;20036;-68
2023/03/21 05:11:29;;;;;;;31.88;16.42;;;;;;;7.09;100.00;100435.41;5051451;28;20487;-68
2023/03/21 05:13:55;;;;;;;26.30;16.33;;;;;;;6.89;100.00;100444.66;5052780;28;20029;-68
2023/03/21 05:16:25;;;;;;;29.38;17.42;;;;;;;6.73;100.00;100438.75;5051326;28;20025;-69
2023/03/21 05:18:52;;;;;;;26.30;16.10;;;;;;;6.60;100.00;100429.53;5052691;28;20025;-68
2023/03/21 05:21:18;;;;;;;28.92;17.48;;;;;;;6.33;100.00;100428.97;5052962;28;20025;-68
2023/03/21 05:23:43;;;;;;;38.13;17.23;;;;;;;6.34;100.00;100440.09;5052907;28;20032;-70
2023/03/21 05:26:09;;;;;;;29.42;18.08;;;;;;;6.36;100.00;100430.81;5051554;28;20170;-69
2023/03/21 05:28:35;;;;;;;32.40;17.70;;;;;;;6.06;100.00;100395.03;5053423;28;20532;-68
2023/03/21 05:31:05;;;;;;;31.30;18.40;;;;;;;6.37;100.00;100440.22;5052188;28;20025;-67
2023/03/21 05:33:31;;;;;;;30.42;17.95;;;;;;;6.42;100.00;100443.94;5052527;28;20525;-69
2023/03/21 05:35:57;;;;;;;36.03;19.13;;;;;;;6.35;100.00;100445.28;5051749;28;20442;-69
2023/03/21 05:38:24;;;;;;;32.70;19.92;;;;;;;6.40;100.00;100440.41;5052824;28;20029;-68
2023/03/21 05:40:50;;;;;;;40.17;20.23;;;;;;;6.46;100.00;100451.00;5052689;28;20024;-68
2023/03/21 05:43:16;;;;;;;36.28;19.20;;;;;;;6.24;100.00;100433.59;5051077;28;20043;-68
2023/03/21 05:45:42;;;;;;;31.02;17.80;;;;;;;6.31;100.00;100438.25;5051998;28;20024;-68
2023/03/21 05:48:08;;;;;;;30.15;18.00;;;;;;;6.36;100.00;100434.25;5052329;28;20445;-68
2023/03/21 05:50:33;;;;;;;33.97;18.67;;;;;;;6.41;100.00;100452.44;5052600;28;20029;-68
2023/03/21 05:52:59;;;;;;;31.98;18.73;;;;;;;6.09;100.00;100405.44;5052296;28;20025;-68
2023/03/21 05:55:24;;;;;;;32.85;19.73;;;;;;;6.44;100.00;100450.94;5050977;28;20032;-68
2023/03/21 05:57:50;;;;;;;30.48;18.95;;;;;;;6.55;100.00;100459.16;5052270;28;20099;-68
2023/03/21 06:00:16;;;;;;;30.05;18.50;;;;;;;6.69;100.00;100464.16;5052167;28;20112;-68
2023/03/21 06:02:42;;;;;;;33.22;19.05;;;;;;;6.77;100.00;100452.63;5052226;28;20021;-69
2023/03/21 06:05:08;;;;;;;26.42;17.92;;;;;;;6.80;100.00;100469.06;5052363;28;20055;-68
2023/03/21 06:07:34;;;;;;;34.72;20.45;;;;;;;6.94;100.00;100477.47;5034255;28;20033;-68
2023/03/21 06:09:59;;;;;;;28.05;18.40;;;;;;;6.97;100.00;100469.91;5052681;28;20032;-68
2023/03/21 06:12:25;;;;;;;35.65;20.23;;;;;;;6.80;100.00;100427.09;5051373;28;20414;-69
2023/03/21 06:14:50;;;;;;;32.58;19.58;;;;;;;7.19;100.00;100471.03;5051787;28;20032;-68
2023/03/21 06:17:16;;;;;;;31.40;19.17;;;;;;;7.32;100.00;100464.81;5051762;28;20021;-68
2023/03/21 06:19:41;;;;;;;32.65;18.58;;;;;;;7.36;100.00;100458.13;5050976;28;20029;-68
2023/03/21 06:22:07;;;;;;;35.05;19.48;;;;;;;7.11;100.00;100396.16;5052291;28;20525;-69
2023/03/21 06:24:32;;;;;;;35.92;19.83;;;;;;;7.54;100.00;100443.63;5051762;28;20021;-68
2023/03/21 06:26:58;;;;;;;43.08;20.17;;;;;;;7.82;100.00;100451.78;5052544;28;20052;-69
2023/03/21 06:29:24;;;;;;;41.90;20.15;;;;;;;7.86;100.00;100449.44;5054763;28;20060;-69
2023/03/21 06:31:50;;;;;;;37.47;19.55;;;;;;;7.90;100.00;100437.59;5056120;28;20116;-69
2023/03/21 06:34:15;;;;;;;34.67;19.55;;;;;;;8.16;100.00;100449.13;5054768;28;20107;-69
2023/03/21 06:36:43;;;;;;;37.25;19.67;;;;;;;8.40;100.00;100449.34;5055708;28;20033;-69
2023/03/21 06:39:09;;;;;;;31.67;19.38;;;;;;;8.52;100.00;100445.59;5055705;28;20031;-69
2023/03/21 06:41:35;;;;;;;35.65;19.27;;;;;;;8.63;100.00;100452.09;5056198;28;20021;-68
2023/03/21 06:44:00;;;;;;;35.83;18.98;;;;;;;8.48;100.00;100426.56;5055892;28;20486;-68
2023/03/21 06:46:26;;;;;;;32.65;18.85;;;;;;;8.63;100.00;100452.09;5055284;28;20570;-68
2023/03/21 06:48:51;;;;;;;32.63;18.55;;;;;;;8.75;100.00;100456.94;5055774;28;20029;-68
2023/03/21 06:51:17;;;;;;;32.85;19.10;;;;;;;8.81;100.00;100440.84;5055757;28;20159;-69
2023/03/21 06:53:43;;;;;;;33.45;19.55;;;;;;;8.99;100.00;100441.66;5055948;28;20395;-68
2023/03/21 06:56:09;;;;;;;34.30;18.92;;;;;;;9.13;100.00;100452.53;5054104;28;20033;-68
2023/03/21 06:58:35;;;;;;;35.15;19.95;;;;;;;9.14;100.00;100445.69;5055590;28;20040;-68
2023/03/21 07:01:02;;;;;;;37.97;20.30;;;;;;;9.12;100.00;100448.22;5055797;28;20032;-68
2023/03/21 07:03:28;;;;;;;36.90;19.90;;;;;;;8.86;100.00;100400.72;5055506;28;20037;-68
2023/03/21 07:05:53;;;;;;;35.10;20.75;;;;;;;9.15;100.00;100440.59;5055152;28;20151;-68
2023/03/21 07:08:19;;;;;;;34.17;19.50;;;;;;;9.38;100.00;100451.00;5055368;28;20021;-67
2023/03/21 07:10:45;;;;;;;36.97;20.52;;;;;;;9.32;100.00;100401.78;5055389;28;20064;-71
2023/03/21 07:13:11;;;;;;;32.40;19.88;;;;;;;9.80;100.00;100438.06;5055058;28;20029;-69
2023/03/21 07:15:37;;;;;;;32.05;19.50;;;;;;;9.76;100.00;100431.06;5053998;28;20029;-68
2023/03/21 07:18:08;;;;;;;34.08;20.40;;;;;;;9.73;100.00;100418.03;5054967;28;20376;-68
2023/03/21 07:20:34;;;;;;;34.25;19.50;;;;;;;10.09;100.00;100450.34;5055215;28;20033;-69
2023/03/21 07:23:00;;;;;;;31.52;20.42;;;;;;;10.30;100.00;100445.13;5054431;28;20452;-68
2023/03/21 07:25:26;;;;;;;33.38;20.48;;;;;;;10.35;100.00;100447.09;5053971;28;20127;-68
2023/03/21 07:27:51;;;;;;;35.20;20.83;;;;;;;10.36;100.00;100435.06;5055118;28;20056;-68
2023/03/21 07:30:17;;;;;;;33.88;18.77;;;;;;;10.42;100.00;100445.63;5054692;28;20039;-68
2023/03/21 07:32:44;;;;;;;33.90;20.65;;;;;;;10.40;100.00;100405.97;5054646;28;20087;-68
2023/03/21 07:35:11;;;;;;;37.58;22.27;;;;;;;10.89;100.00;100439.53;5055190;28;20032;-68
2023/03/21 07:37:37;;;;;;;38.75;24.38;;;;;;;10.98;100.00;100439.88;5054598;28;20463;-68
2023/03/21 07:40:08;;;;;;;32.03;21.00;;;;;;;10.89;100.00;100413.72;5054744;28;20033;-69
2023/03/21 07:42:34;;;;;;;35.42;21.70;;;;;;;11.26;100.00;100438.22;5055081;28;20053;-69
2023/03/21 07:44:59;;;;;;;35.90;20.45;;;;;;;11.31;100.00;100445.31;5053595;28;20064;-68
2023/03/21 07:47:24;;;;;;;30.10;19.35;;;;;;;11.28;100.00;100440.03;5054726;28;20090;-68
2023/03/21 07:49:50;;;;;;;32.85;20.05;;;;;;;11.32;100.00;100438.44;5054394;28;20489;-68
2023/03/21 07:52:15;;;;;;;32.13;19.17;;;;;;;11.05;100.00;100384.13;5054351;28;20059;-68
2023/03/21 07:54:41;;;;;;;31.20;18.10;;;;;;;11.55;100.00;100446.06;5054394;28;20033;-68
2023/03/21 07:57:06;;;;;;;30.48;18.98;;;;;;;11.69;100.00;100434.47;5054410;28;20495;-66
2023/03/21 07:59:32;;;;;;;29.75;19.25;;;;;;;11.72;100.00;100449.19;5054355;28;20029;-70
2023/03/21 08:01:57;;;;;;;33.40;18.35;;;;;;;11.55;100.00;100410.75;5054406;28;20399;-66
2023/03/21 08:04:23;;;;;;;35.00;18.88;;;;;;;11.79;100.00;100448.56;5054365;28;20033;-67
2023/03/21 08:06:49;;;;;;;32.70;18.80;;;;;;;11.46;100.00;100411.34;5054035;28;20040;-68
2023/03/21 08:09:15;;;;;;;28.02;16.92;;;;;;;11.47;100.00;100389.81;5054208;28;20127;-68
2023/03/21 08:11:40;;;;;;;31.85;18.23;;;;;;;11.87;100.00;100436.72;5053863;28;20029;-68
2023/03/21 08:14:06;;;;;;;28.55;17.77;;;;;;;12.04;100.00;100442.47;5053785;28;20040;-68
2023/03/21 08:16:31;;;;;;;30.33;18.50;;;;;;;12.10;100.00;100428.81;5052591;28;20033;-69
2023/03/21 08:18:57;;;;;;;34.78;18.50;;;;;;;12.22;100.00;100430.91;5054111;28;20032;-68
2023/03/21 08:21:22;;;;;;;33.67;18.00;;;;;;;12.31;100.00;100423.41;5054083;28;20533;-68
2023/03/21 08:23:48;;;;;;;33.35;18.40;;;;;;;12.44;100.00;100428.09;5052143;28;20478;-69
2023/03/21 08:26:17;;;;;;;34.08;18.38;;;;;;;12.34;100.00;100395.03;5053867;28;20090;-69
2023/03/21 08:28:42;;;;;;;34.00;18.63;;;;;;;12.56;100.00;100429.28;5054253;28;20430;-69
2023/03/21 08:31:10;;;;;;;28.08;18.10;;;;;;;12.65;100.00;100432.16;5053929;28;20029;-68
2023/03/21 08:33:36;;;;;;;35.80;18.77;;;;;;;12.71;100.00;100428.84;5053774;28;20467;-69
2023/03/21 08:36:02;;;;;;;25.33;17.08;;;;;;;12.49;100.00;100381.63;5053225;28;20036;-68
2023/03/21 08:38:29;;;;;;;28.95;15.45;;;;;;;12.71;100.00;100421.97;5053747;28;20021;-69
2023/03/21 08:40:55;;;;;;;33.28;18.08;;;;;;;12.75;100.00;100418.59;5053706;28;20029;-65
2023/03/21 08:43:21;;;;;;;31.88;17.35;;;;;;;12.87;100.00;100407.72;5053317;28;20442;-69
2023/03/21 08:45:47;;;;;;;24.05;14.77;;;;;;;13.05;100.00;100401.25;5053546;28;20187;-69
2023/03/21 08:48:13;;;;;;;28.10;14.55;;;;;;;13.32;100.00;100415.72;5053236;28;20029;-69
2023/03/21 08:50:38;;;;;;;29.35;15.18;;;;;;;13.33;100.00;100400.22;5052110;28;20036;-69
2023/03/21 08:53:04;;;;;;;33.58;14.90;;;;;;;13.38;100.00;100390.00;5053689;28;20029;-69
2023/03/21 08:55:31;;;;;;;34.30;15.02;;;;;;;13.44;100.00;100405.69;5053119;28;20467;-66
2023/03/21 08:57:58;;;;;;;30.45;13.90;;;;;;;13.30;100.00;100363.84;5053089;28;20031;-69
2023/03/21 09:00:23;;;;;;;27.27;13.45;;;;;;;13.56;100.00;100392.16;5053065;28;20099;-69
2023/03/21 09:02:51;;;;;;;22.73;12.32;;;;;;;13.70;100.00;100385.56;5053301;28;20487;-68
2023/03/21 09:05:17;;;;;;;32.30;14.15;;;;;;;13.86;100.00;100389.38;5052968;28;20116;-68
2023/03/21 09:07:43;;;;;;;61.25;18.02;;;;;;;14.00;100.00;100396.59;5053180;28;20080;-69
2023/03/21 09:10:12;;;;;;;60.97;19.02;;;;;;;14.10;100.00;100380.38;5052832;28;20028;-69
2023/03/21 09:12:38;;;;;;;47.33;17.13;;;;;;;14.26;100.00;100381.56;5053143;28;20506;-69
2023/03/21 09:15:04;;;;;;;26.20;12.95;;;;;;;14.37;100.00;100367.06;5053341;28;20116;-68
2023/03/21 09:17:31;;;;;;;27.60;11.65;;;;;;;14.42;98.78;100379.25;5053051;28;20391;-68
2023/03/21 09:19:59;;;;;;;26.80;10.82;;;;;;;14.39;96.70;100361.91;5030537;28;20038;-68
2023/03/21 09:22:26;;;;;;;16.80;9.98;;;;;;;14.57;96.02;100370.06;5030635;28;20463;-69
2023/03/21 09:24:52;;;;;;;21.33;11.00;;;;;;;14.59;99.35;100356.22;5030521;28;20041;-69
2023/03/21 09:27:21;;;;;;;22.83;11.52;;;;;;;14.61;100.00;100315.56;5030615;28;20057;-68
2023/03/21 09:29:48;;;;;;;29.52;12.88;;;;;;;14.99;100.00;100355.25;5030798;28;20068;-69
2023/03/21 09:32:14;;;;;;;30.83;12.20;;;;;;;15.10;100.00;100359.75;5030340;28;20079;-69
2023/03/21 09:34:39;;;;;;;33.80;12.40;;;;;;;15.23;99.11;100350.41;5030641;28;20519;-66
2023/03/21 09:37:11;;;;;;;31.17;12.27;;;;;;;15.39;99.83;100346.31;5030210;28;20037;-66
2023/03/21 09:39:41;;;;;;;28.88;12.00;;;;;;;15.43;96.74;100355.94;5030289;28;20142;-68
2023/03/21 09:42:19;;;;;;;;;;;;;;;15.50;97.47;100349.97;5030912;28;20040;-67
2023/03/21 09:45:01;;;;;;;28.23;11.90;;;;;;;15.68;98.20;100347.63;5030437;28;19920;-68
2023/03/21 09:47:33;;;;;;;25.60;12.30;;;;;;;15.68;98.40;100347.63;5030698;28;20034;-68
2023/03/21 09:50:03;;;;;;;31.17;12.23;;;;;;;15.61;98.17;100347.53;5032869;28;20029;-68
2023/03/21 09:52:40;;;;;;;26.85;12.05;;;;;;;15.61;98.97;100330.16;5050723;28;20017;-68
2023/03/21 09:55:18;;;;;;;23.42;11.60;;;;;;;15.77;99.10;100317.38;5052158;28;20028;-69
2023/03/21 09:58:08;;;;;;;27.23;12.48;;;;;;;15.95;97.69;100340.19;5052759;28;20021;-69
2023/03/21 10:00:42;;;;;;;28.98;12.90;;;;;;;15.84;99.91;100337.47;4977766;28;20077;-68
2023/03/21 10:03:23;;;;;;;29.40;13.30;;;;;;;15.91;99.47;100335.81;4994660;28;20057;-69
2023/03/21 10:05:51;;;;;;;24.63;12.40;;;;;;;15.96;99.34;100329.81;4994769;28;20038;-68
2023/03/21 10:08:26;;;;;;;28.70;12.85;;;;;;;15.99;97.22;100323.78;4994957;28;20146;-68
2023/03/21 10:10:55;;;;;;;35.65;13.02;;;;;;;16.02;98.25;100334.22;4994543;28;20037;-68
2023/03/21 10:13:32;;;;;;;29.15;12.52;;;;;;;16.01;99.18;100325.53;4995155;28;20100;-69
2023/03/21 10:16:00;;;;;;;31.50;12.57;;;;;;;15.93;98.57;100323.69;4994538;28;20042;-68
2023/03/21 10:18:29;;;;;;;24.98;12.52;;;;;;;15.70;98.57;100290.38;4995152;28;20034;-69
2023/03/21 10:20:56;;;;;;;24.65;12.35;;;;;;;15.88;100.00;100327.97;4978681;28;20385;-69
2023/03/21 10:23:26;;;;;;;26.48;13.82;;;;;;;15.67;99.17;100317.25;4994391;28;20042;-69
2023/03/21 10:25:58;;;;;;;30.90;12.30;;;;;;;15.75;99.40;100322.56;4977681;28;20046;-69
2023/03/21 10:28:29;;;;;;;29.83;13.02;;;;;;;15.74;100.00;100325.13;4994604;28;20045;-69
2023/03/21 10:30:57;;;;;;;25.80;12.20;;;;;;;15.73;100.00;100326.00;4994362;28;20134;-69
2023/03/21 10:33:31;;;;;;;26.05;12.75;;;;;;;15.74;100.00;100313.00;4994798;28;20563;-69
2023/03/21 10:36:04;;;;;;;25.20;13.15;;;;;;;15.72;100.00;100317.31;4977849;28;20022;-69
2023/03/21 10:38:30;;;;;;;26.15;12.88;;;;;;;15.65;100.00;100308.56;5049250;28;20045;-69
2023/03/21 10:40:55;;;;;;;22.85;13.10;;;;;;;15.51;100.00;100304.88;5056004;28;20498;-69
2023/03/21 10:43:28;;;;;;;21.65;12.40;;;;;;;15.66;100.00;100312.03;5055961;28;20029;-69
2023/03/21 10:45:54;;;;;;;24.35;13.65;;;;;;;15.78;100.00;100313.94;5055569;28;20052;-69
2023/03/21 10:48:22;;;;;;;26.48;13.40;;;;;;;15.80;100.00;100307.00;5054873;28;20033;-69
2023/03/21 10:50:51;;;;;;;22.63;12.27;;;;;;;15.79;100.00;100298.31;5055538;28;20037;-69
2023/03/21 10:53:20;;;;;;;20.67;12.10;;;;;;;15.92;100.00;100301.13;5055493;28;20025;-69
2023/03/21 10:55:50;;;;;;;22.23;11.95;;;;;;;15.89;99.11;100285.44;5055488;28;20251;-69
2023/03/21 10:58:26;;;;;;;17.65;11.45;;;;;;;15.96;98.84;100287.28;5055667;28;20029;-69
2023/03/21 11:01:14;;;;;;;19.58;11.25;;;;;;;16.10;99.01;100297.84;5055634;28;20136;-69
2023/03/21 11:03:45;;;;;;;19.20;10.48;;;;;;;16.20;99.70;100291.00;5055829;28;20108;-69
2023/03/21 11:06:25;;;;;;;23.67;11.10;;;;;;;16.37;99.83;100292.06;5054913;28;20112;-69
2023/03/21 11:08:56;;;;;;;14.40;9.70;;;;;;;16.39;96.41;100292.97;5055421;28;20463;-69
2023/03/21 11:11:28;;;;;;;23.60;11.93;;;;;;;16.48;99.33;100302.59;5055376;28;20032;-69
2023/03/21 11:14:05;;;;;;;20.85;10.07;;;;;;;16.26;95.79;100260.72;5054671;28;20028;-69
2023/03/21 11:16:39;;;;;;;18.85;11.32;;;;;;;16.49;96.67;100294.78;5055049;28;20116;-69
2023/03/21 11:19:32;;;;;;;19.25;10.05;;;;;;;16.53;96.63;100285.28;5054284;28;20025;-68